createdAt,value
2022-08-14T00:02:31.449Z,96.60
2022-08-14T00:07:35.587Z,97.90
2022-08-14T00:12:56.418Z,97.80
2022-08-14T00:17:59.448Z,98.50
2022-08-14T00:23:11.946Z,99.60
2022-08-14T00:28:17.882Z,99.90
2022-08-14T00:33:20.586Z,99.90
2022-08-14T00:38:42.763Z,99.90
2022-08-14T00:43:46.467Z,99.90
2022-08-14T00:48:49.323Z,99.90
2022-08-14T00:53:51.559Z,99.90
2022-08-14T00:58:56.088Z,99.90
2022-08-14T01:04:01.610Z,99.90
2022-08-14T01:09:08.853Z,99.90
2022-08-14T01:14:25.684Z,99.90
2022-08-14T01:19:49.570Z,99.90
2022-08-14T01:24:51.864Z,99.90
2022-08-14T01:30:03.453Z,99.90
2022-08-14T01:35:18.393Z,99.90
2022-08-14T01:40:36.985Z,99.90
2022-08-14T01:45:49.154Z,99.90
2022-08-14T01:51:03.754Z,99.90
2022-08-14T01:56:12.167Z,99.90
2022-08-14T02:01:20.894Z,99.90
2022-08-14T02:06:33.315Z,99.90
2022-08-14T02:11:37.243Z,99.90
2022-08-14T02:16:42.832Z,99.90
2022-08-14T02:21:50.551Z,99.90
2022-08-14T02:26:58.310Z,99.90
2022-08-14T02:32:19.991Z,99.90
2022-08-14T02:37:46.983Z,99.90
2022-08-14T02:42:55.338Z,99.90
2022-08-14T02:48:10.471Z,99.90
2022-08-14T02:53:31.392Z,99.90
2022-08-14T02:58:42.385Z,99.90
2022-08-14T03:03:45.182Z,99.90
2022-08-14T03:08:48.558Z,99.90
2022-08-14T03:13:52.665Z,99.90
2022-08-14T03:19:01.070Z,99.90
2022-08-14T03:24:04.886Z,99.90
2022-08-14T03:29:13.912Z,99.90
2022-08-14T03:34:24.825Z,99.90
2022-08-14T03:39:38.485Z,99.90
2022-08-14T03:45:19.913Z,99.90
2022-08-14T03:50:10.900Z,99.90
2022-08-14T03:55:14.119Z,99.90
2022-08-14T04:00:42.701Z,99.90
2022-08-14T04:05:43.227Z,99.90
2022-08-14T04:10:51.042Z,99.90
2022-08-14T04:16:01.259Z,99.90
2022-08-14T04:21:04.411Z,99.90
2022-08-14T04:26:14.517Z,99.90
2022-08-14T04:31:18.504Z,99.90
2022-08-14T04:36:56.773Z,99.90
2022-08-14T04:42:17.592Z,99.90
2022-08-14T04:47:38.773Z,99.90
2022-08-14T04:52:53.939Z,99.90
2022-08-14T04:57:59.361Z,99.90
2022-08-14T05:03:03.526Z,99.90
2022-08-14T05:08:32.304Z,99.90
2022-08-14T05:13:53.297Z,99.90
2022-08-14T05:19:24.535Z,99.90
2022-08-14T05:24:21.873Z,99.90
2022-08-14T05:29:24.131Z,99.90
2022-08-14T05:34:31.820Z,99.90
2022-08-14T05:39:34.730Z,99.90
2022-08-14T05:44:37.064Z,99.90
2022-08-14T05:49:39.786Z,99.90
2022-08-14T05:54:42.477Z,99.90
2022-08-14T05:59:46.614Z,99.90
2022-08-14T06:04:49.449Z,99.90
2022-08-14T06:09:52.495Z,99.90
2022-08-14T06:14:54.882Z,99.90
2022-08-14T06:19:57.148Z,99.90
2022-08-14T06:24:59.548Z,99.90
2022-08-14T06:30:04.037Z,99.90
2022-08-14T06:35:13.123Z,99.90
2022-08-14T06:40:27.172Z,99.90
2022-08-14T06:45:31.757Z,99.90
2022-08-14T06:50:34.018Z,99.90
2022-08-14T06:55:37.025Z,99.90
2022-08-14T07:01:06.183Z,99.90
2022-08-14T07:06:11.734Z,99.90
2022-08-14T07:11:23.727Z,99.90
2022-08-14T07:16:29.245Z,99.90
2022-08-14T07:21:32.617Z,99.90
2022-08-14T07:26:36.576Z,99.90
2022-08-14T07:31:41.109Z,99.90
2022-08-14T07:36:58.017Z,99.90
2022-08-14T07:42:02.805Z,99.90
2022-08-14T07:47:05.474Z,99.90
2022-08-14T07:52:08.153Z,99.90
2022-08-14T07:57:12.613Z,99.90
2022-08-14T08:02:19.674Z,99.90
2022-08-14T08:07:30.023Z,99.90
2022-08-14T08:12:34.518Z,99.90
2022-08-14T08:17:38.581Z,99.90
2022-08-14T08:22:48.245Z,99.90
2022-08-14T08:28:08.246Z,99.90
2022-08-14T08:33:11.114Z,99.90
2022-08-14T08:39:15.128Z,99.90
2022-08-14T08:43:46.207Z,99.90
2022-08-14T08:48:54.106Z,99.90
2022-08-14T08:54:04.267Z,99.90
2022-08-14T08:59:21.014Z,99.90
2022-08-14T09:04:24.797Z,99.90
2022-08-14T09:09:30.631Z,99.90
2022-08-14T09:14:36.503Z,99.90
2022-08-14T09:19:42.540Z,99.90
2022-08-14T09:24:47.607Z,99.90
2022-08-14T09:29:54.081Z,99.90
2022-08-14T09:35:24.275Z,99.90
2022-08-14T09:40:56.280Z,99.90
2022-08-14T09:46:02.710Z,99.90
2022-08-14T09:56:12.469Z,99.90
2022-08-14T10:01:36.647Z,99.90
2022-08-14T10:06:45.345Z,99.90
2022-08-14T10:11:59.691Z,99.90
2022-08-14T10:17:02.628Z,99.90
2022-08-14T10:23:15.110Z,99.90
2022-08-14T10:27:34.062Z,99.90
2022-08-14T10:32:51.697Z,99.90
2022-08-14T10:37:54.487Z,99.90
2022-08-14T10:42:58.814Z,99.90
2022-08-14T10:48:24.308Z,99.90
2022-08-14T10:53:39.783Z,99.90
2022-08-14T10:58:42.563Z,99.90
2022-08-14T11:03:56.351Z,99.90
2022-08-14T11:08:59.333Z,99.90
2022-08-14T11:14:09.580Z,99.90
2022-08-14T11:19:13.591Z,99.90
2022-08-14T11:24:54.803Z,99.90
2022-08-14T11:29:43.389Z,99.90
2022-08-14T11:34:46.459Z,99.90
2022-08-14T11:39:48.846Z,99.90
2022-08-14T11:45:00.231Z,99.90
2022-08-14T11:50:15.286Z,99.90
2022-08-14T11:55:39.668Z,99.90
2022-08-14T12:00:54.465Z,99.90
2022-08-14T12:06:05.545Z,99.90
2022-08-14T12:11:10.334Z,99.90
2022-08-14T12:16:20.757Z,99.90
2022-08-14T12:21:29.532Z,99.90
2022-08-14T12:26:40.635Z,99.90
2022-08-14T12:31:47.382Z,99.90
2022-08-14T12:37:12.147Z,99.90
2022-08-14T12:42:34.111Z,99.90
2022-08-14T12:47:37.691Z,99.90
2022-08-14T12:52:56.123Z,99.90
2022-08-14T12:58:14.012Z,99.90
2022-08-14T13:03:29.796Z,99.90
2022-08-14T13:08:34.397Z,99.90
2022-08-14T13:13:37.891Z,99.90
2022-08-14T13:18:47.288Z,99.90
2022-08-14T13:24:00.428Z,99.90
2022-08-14T13:29:06.438Z,99.90
2022-08-14T13:34:13.372Z,99.90
2022-08-14T13:39:20.546Z,99.90
2022-08-14T13:44:27.194Z,99.90
2022-08-14T13:49:29.852Z,99.90
2022-08-14T13:54:36.400Z,99.90
2022-08-14T13:59:45.731Z,99.90
2022-08-14T14:04:49.467Z,99.90
2022-08-14T14:09:55.305Z,99.90
2022-08-14T14:15:01.736Z,99.90
2022-08-14T14:20:34.690Z,99.90
2022-08-14T14:25:41.201Z,99.90
2022-08-14T14:30:53.189Z,99.90
2022-08-14T14:35:57.022Z,99.90
2022-08-14T14:41:03.666Z,99.90
2022-08-14T14:46:09.750Z,99.90
2022-08-14T14:51:17.011Z,99.90
2022-08-14T14:56:50.458Z,99.90
2022-08-14T15:01:47.821Z,99.90
2022-08-14T15:06:50.178Z,99.90
2022-08-14T15:11:55.503Z,99.90
2022-08-14T15:16:59.067Z,99.90
2022-08-14T15:22:03.354Z,99.90
2022-08-14T15:27:06.890Z,99.90
2022-08-14T15:32:10.978Z,99.70
2022-08-14T15:37:16.745Z,99.90
2022-08-14T15:42:20.120Z,99.00
2022-08-14T15:47:28.216Z,98.90
2022-08-14T15:52:35.455Z,99.10
2022-08-14T15:58:01.576Z,98.90
2022-08-14T16:03:03.519Z,98.30
2022-08-14T16:08:27.051Z,98.00
2022-08-14T16:13:42.186Z,98.30
2022-08-14T16:18:45.611Z,98.10
2022-08-14T16:23:48.551Z,98.10
2022-08-14T16:29:04.503Z,97.20
2022-08-14T16:34:45.919Z,97.10
2022-08-14T16:39:29.438Z,96.70
2022-08-14T16:44:40.884Z,96.60
2022-08-14T16:50:03.177Z,96.30
2022-08-14T16:55:09.066Z,95.40
2022-08-14T17:00:44.021Z,96.00
2022-08-14T17:05:48.137Z,97.00
2022-08-14T17:10:50.339Z,96.40
2022-08-14T17:16:23.949Z,97.10
2022-08-14T17:21:31.899Z,96.60
2022-08-14T17:26:44.781Z,95.90
2022-08-14T17:31:58.616Z,96.10
2022-08-14T17:37:02.673Z,96.30
2022-08-14T17:42:08.057Z,96.70
2022-08-14T17:47:18.059Z,96.70
2022-08-14T17:52:35.823Z,96.90
2022-08-14T17:57:43.158Z,97.20
2022-08-14T18:02:50.414Z,97.50
2022-08-14T18:08:31.295Z,97.80
2022-08-14T18:13:16.496Z,98.20
2022-08-14T18:18:18.980Z,98.50
2022-08-14T18:23:21.800Z,98.60
2022-08-14T18:28:51.176Z,98.50
2022-08-14T18:34:11.825Z,99.30
2022-08-14T18:39:23.242Z,99.90
2022-08-14T18:44:50.669Z,99.90
2022-08-14T18:50:00.666Z,99.90
2022-08-14T18:55:21.510Z,99.90
2022-08-14T19:00:32.958Z,99.90
2022-08-14T19:05:47.621Z,99.90
2022-08-14T19:10:52.501Z,99.90
2022-08-14T19:16:13.834Z,99.90
2022-08-14T19:21:46.486Z,99.90
2022-08-14T19:26:54.676Z,99.90
2022-08-14T19:31:59.559Z,99.90
2022-08-14T19:37:06.092Z,99.90
2022-08-14T19:42:10.449Z,99.90
2022-08-14T19:47:15.482Z,99.90
2022-08-14T19:52:35.222Z,99.90
2022-08-14T19:57:39.512Z,99.90
2022-08-14T20:02:51.078Z,99.90
2022-08-14T20:08:06.417Z,99.90
2022-08-14T20:13:32.200Z,99.90
2022-08-14T20:18:49.674Z,99.90
2022-08-14T20:24:31.045Z,99.90
2022-08-14T20:29:38.982Z,99.90
2022-08-14T20:34:51.384Z,99.90
2022-08-14T20:39:55.854Z,99.90
2022-08-14T20:45:18.776Z,99.90
2022-08-14T20:50:28.693Z,99.90
2022-08-14T20:55:37.371Z,99.90
2022-08-14T21:00:52.242Z,99.90
2022-08-14T21:05:58.130Z,99.90
2022-08-14T21:11:01.256Z,99.90
2022-08-14T21:16:33.662Z,99.90
2022-08-14T21:21:41.379Z,99.90
2022-08-14T21:26:52.644Z,99.90
2022-08-14T21:32:20.842Z,99.90
2022-08-14T21:37:23.699Z,99.90
2022-08-14T21:42:27.955Z,99.90
2022-08-14T21:47:30.338Z,99.90
2022-08-14T21:52:49.151Z,99.90
2022-08-14T21:58:04.089Z,99.90
2022-08-14T22:03:24.313Z,99.90
2022-08-14T22:08:27.307Z,99.90
2022-08-14T22:13:32.467Z,99.90
2022-08-14T22:18:34.914Z,99.90
2022-08-14T22:23:38.878Z,99.90
2022-08-14T22:28:44.987Z,99.90
2022-08-14T22:33:50.006Z,99.90
2022-08-14T22:39:00.350Z,99.90
2022-08-14T22:44:15.053Z,99.90
2022-08-14T22:50:29.163Z,99.90
2022-08-14T22:54:52.520Z,99.90
2022-08-14T22:59:55.878Z,99.90
2022-08-14T23:05:03.756Z,99.90
2022-08-14T23:10:31.675Z,99.90
2022-08-14T23:15:30.066Z,99.90
2022-08-14T23:20:33.937Z,99.90
2022-08-14T23:25:59.428Z,99.90
2022-08-14T23:31:05.871Z,99.90
2022-08-14T23:36:32.082Z,99.90
2022-08-14T23:41:46.188Z,99.90
2022-08-14T23:46:56.962Z,99.90
2022-08-14T23:53:06.038Z,99.90
2022-08-14T23:57:25.122Z,99.90
